sensor_id;sensor_type;location;lat;lon;timestamp;temperature;humidity
39503;DHT22;26970;49.900;10.774;2024-02-28T00:00:26;3.90;99.90
39503;DHT22;26970;49.900;10.774;2024-02-28T00:02:52;4.00;99.90
39503;DHT22;26970;49.900;10.774;2024-02-28T00:05:17;4.00;99.90
39503;DHT22;26970;49.900;10.774;2024-02-28T00:07:43;4.00;99.90
39503;DHT22;26970;49.900;10.774;2024-02-28T00:10:09;4.00;99.90
39503;DHT22;26970;49.900;10.774;2024-02-28T00:12:34;3.90;99.90
39503;DHT22;26970;49.900;10.774;2024-02-28T00:15:00;4.00;99.90
39503;DHT22;26970;49.900;10.774;2024-02-28T00:17:26;4.00;99.90
39503;DHT22;26970;49.900;10.774;2024-02-28T00:19:51;4.00;99.90
39503;DHT22;26970;49.900;10.774;2024-02-28T00:22:17;4.00;99.90
39503;DHT22;26970;49.900;10.774;2024-02-28T00:24:42;4.00;99.90
39503;DHT22;26970;49.900;10.774;2024-02-28T00:27:08;4.00;99.90
39503;DHT22;26970;49.900;10.774;2024-02-28T00:29:33;4.00;99.90
39503;DHT22;26970;49.900;10.774;2024-02-28T00:31:59;4.00;99.90
39503;DHT22;26970;49.900;10.774;2024-02-28T00:34:24;4.10;99.90
39503;DHT22;26970;49.900;10.774;2024-02-28T00:36:51;4.10;99.90
39503;DHT22;26970;49.900;10.774;2024-02-28T00:39:17;4.10;99.90
39503;DHT22;26970;49.900;10.774;2024-02-28T00:41:42;4.10;99.90
39503;DHT22;26970;49.900;10.774;2024-02-28T00:44:08;4.10;99.90
39503;DHT22;26970;49.900;10.774;2024-02-28T00:46:34;4.10;99.90
39503;DHT22;26970;49.900;10.774;2024-02-28T00:48:59;4.10;99.90
39503;DHT22;26970;49.900;10.774;2024-02-28T00:51:25;4.10;99.90
39503;DHT22;26970;49.900;10.774;2024-02-28T00:53:50;4.00;99.90
39503;DHT22;26970;49.900;10.774;2024-02-28T00:56:16;4.10;99.90
39503;DHT22;26970;49.900;10.774;2024-02-28T00:58:44;4.00;99.90
39503;DHT22;26970;49.900;10.774;2024-02-28T01:01:09;4.10;99.90
39503;DHT22;26970;49.900;10.774;2024-02-28T01:03:35;4.10;99.90
39503;DHT22;26970;49.900;10.774;2024-02-28T01:06:00;4.10;99.90
39503;DHT22;26970;49.900;10.774;2024-02-28T01:08:26;4.00;99.90
39503;DHT22;26970;49.900;10.774;2024-02-28T01:10:52;4.00;99.90
39503;DHT22;26970;49.900;10.774;2024-02-28T01:13:17;4.00;99.90
39503;DHT22;26970;49.900;10.774;2024-02-28T01:15:43;4.10;99.90
39503;DHT22;26970;49.900;10.774;2024-02-28T01:18:09;4.00;99.90
39503;DHT22;26970;49.900;10.774;2024-02-28T01:20:35;4.10;99.90
39503;DHT22;26970;49.900;10.774;2024-02-28T01:23:00;4.00;99.90
39503;DHT22;26970;49.900;10.774;2024-02-28T01:25:26;4.00;99.90
39503;DHT22;26970;49.900;10.774;2024-02-28T01:27:52;4.00;99.90
39503;DHT22;26970;49.900;10.774;2024-02-28T01:30:17;4.10;99.90
39503;DHT22;26970;49.900;10.774;2024-02-28T01:32:44;4.10;99.90
39503;DHT22;26970;49.900;10.774;2024-02-28T01:35:09;4.10;99.90
39503;DHT22;26970;49.900;10.774;2024-02-28T01:37:35;4.00;99.90
39503;DHT22;26970;49.900;10.774;2024-02-28T01:40:00;4.00;99.90
39503;DHT22;26970;49.900;10.774;2024-02-28T01:42:27;4.00;99.90
39503;DHT22;26970;49.900;10.774;2024-02-28T01:44:54;4.10;99.90
39503;DHT22;26970;49.900;10.774;2024-02-28T01:47:19;4.00;99.90
39503;DHT22;26970;49.900;10.774;2024-02-28T01:49:47;4.00;99.90
39503;DHT22;26970;49.900;10.774;2024-02-28T01:52:13;4.00;99.90
39503;DHT22;26970;49.900;10.774;2024-02-28T01:54:39;4.00;99.90
39503;DHT22;26970;49.900;10.774;2024-02-28T01:57:05;4.00;99.90
39503;DHT22;26970;49.900;10.774;2024-02-28T01:59:32;4.00;99.90
39503;DHT22;26970;49.900;10.774;2024-02-28T02:01:59;4.00;99.90
39503;DHT22;26970;49.900;10.774;2024-02-28T02:04:25;4.00;99.90
39503;DHT22;26970;49.900;10.774;2024-02-28T02:06:51;4.00;99.90
39503;DHT22;26970;49.900;10.774;2024-02-28T02:09:19;4.00;99.90
39503;DHT22;26970;49.900;10.774;2024-02-28T02:11:51;4.00;99.90
39503;DHT22;26970;49.900;10.774;2024-02-28T02:14:16;4.00;99.90
39503;DHT22;26970;49.900;10.774;2024-02-28T02:16:42;4.00;99.90
39503;DHT22;26970;49.900;10.774;2024-02-28T02:19:09;4.00;99.90
39503;DHT22;26970;49.900;10.774;2024-02-28T02:21:39;4.10;99.90
39503;DHT22;26970;49.900;10.774;2024-02-28T02:24:06;4.00;99.90
39503;DHT22;26970;49.900;10.774;2024-02-28T02:26:32;4.00;99.90
39503;DHT22;26970;49.900;10.774;2024-02-28T02:28:57;4.00;99.90
39503;DHT22;26970;49.900;10.774;2024-02-28T02:31:23;4.10;99.90
39503;DHT22;26970;49.900;10.774;2024-02-28T02:33:48;4.10;99.90
39503;DHT22;26970;49.900;10.774;2024-02-28T02:36:14;4.00;99.90
39503;DHT22;26970;49.900;10.774;2024-02-28T02:38:39;4.00;99.90
39503;DHT22;26970;49.900;10.774;2024-02-28T02:41:05;4.00;99.90
39503;DHT22;26970;49.900;10.774;2024-02-28T02:43:30;4.00;99.90
39503;DHT22;26970;49.900;10.774;2024-02-28T02:45:56;4.00;99.90
39503;DHT22;26970;49.900;10.774;2024-02-28T02:48:22;4.00;99.90
39503;DHT22;26970;49.900;10.774;2024-02-28T02:50:47;4.00;99.90
39503;DHT22;26970;49.900;10.774;2024-02-28T02:53:14;4.10;99.90
39503;DHT22;26970;49.900;10.774;2024-02-28T02:55:39;4.00;99.90
39503;DHT22;26970;49.900;10.774;2024-02-28T02:58:05;4.00;99.90
39503;DHT22;26970;49.900;10.774;2024-02-28T03:00:30;4.00;99.90
39503;DHT22;26970;49.900;10.774;2024-02-28T03:02:56;4.00;99.90
39503;DHT22;26970;49.900;10.774;2024-02-28T03:05:21;4.00;99.90
39503;DHT22;26970;49.900;10.774;2024-02-28T03:07:47;4.00;99.90
39503;DHT22;26970;49.900;10.774;2024-02-28T03:10:12;4.00;99.90
39503;DHT22;26970;49.900;10.774;2024-02-28T03:12:38;4.00;99.90
39503;DHT22;26970;49.900;10.774;2024-02-28T03:15:05;4.00;99.90
39503;DHT22;26970;49.900;10.774;2024-02-28T03:17:31;4.00;99.90
39503;DHT22;26970;49.900;10.774;2024-02-28T03:19:56;4.10;99.90
39503;DHT22;26970;49.900;10.774;2024-02-28T03:22:22;4.10;99.90
39503;DHT22;26970;49.900;10.774;2024-02-28T03:24:47;4.00;99.90
39503;DHT22;26970;49.900;10.774;2024-02-28T03:27:14;4.10;99.90
39503;DHT22;26970;49.900;10.774;2024-02-28T03:29:39;4.00;99.90
39503;DHT22;26970;49.900;10.774;2024-02-28T03:32:05;4.00;99.90
39503;DHT22;26970;49.900;10.774;2024-02-28T03:34:31;4.10;99.90
39503;DHT22;26970;49.900;10.774;2024-02-28T03:36:56;4.10;99.90
39503;DHT22;26970;49.900;10.774;2024-02-28T03:39:22;4.10;99.90
39503;DHT22;26970;49.900;10.774;2024-02-28T03:41:47;4.10;99.90
39503;DHT22;26970;49.900;10.774;2024-02-28T03:44:13;4.10;99.90
39503;DHT22;26970;49.900;10.774;2024-02-28T03:46:39;4.10;99.90
39503;DHT22;26970;49.900;10.774;2024-02-28T03:49:04;4.10;99.90
39503;DHT22;26970;49.900;10.774;2024-02-28T03:51:30;4.10;99.90
39503;DHT22;26970;49.900;10.774;2024-02-28T03:53:55;4.10;99.90
39503;DHT22;26970;49.900;10.774;2024-02-28T03:56:25;4.10;99.90
39503;DHT22;26970;49.900;10.774;2024-02-28T03:58:51;4.20;99.90
39503;DHT22;26970;49.900;10.774;2024-02-28T04:01:17;4.10;99.90
39503;DHT22;26970;49.900;10.774;2024-02-28T04:03:43;4.20;99.90
39503;DHT22;26970;49.900;10.774;2024-02-28T04:06:09;4.20;99.90
39503;DHT22;26970;49.900;10.774;2024-02-28T04:08:34;4.20;99.90
39503;DHT22;26970;49.900;10.774;2024-02-28T04:11:00;4.20;99.90
39503;DHT22;26970;49.900;10.774;2024-02-28T04:13:25;4.20;99.90
39503;DHT22;26970;49.900;10.774;2024-02-28T04:15:51;4.20;99.90
39503;DHT22;26970;49.900;10.774;2024-02-28T04:18:16;4.20;99.90
39503;DHT22;26970;49.900;10.774;2024-02-28T04:20:42;4.20;99.90
39503;DHT22;26970;49.900;10.774;2024-02-28T04:23:07;4.20;99.90
39503;DHT22;26970;49.900;10.774;2024-02-28T04:25:33;4.20;99.90
39503;DHT22;26970;49.900;10.774;2024-02-28T04:27:59;4.20;99.90
39503;DHT22;26970;49.900;10.774;2024-02-28T04:30:25;4.20;99.90
39503;DHT22;26970;49.900;10.774;2024-02-28T04:32:50;4.20;99.90
39503;DHT22;26970;49.900;10.774;2024-02-28T04:35:16;4.20;99.90
39503;DHT22;26970;49.900;10.774;2024-02-28T04:37:45;4.20;99.90
39503;DHT22;26970;49.900;10.774;2024-02-28T04:40:11;4.20;99.90
39503;DHT22;26970;49.900;10.774;2024-02-28T04:42:37;4.20;99.90
39503;DHT22;26970;49.900;10.774;2024-02-28T04:45:03;4.10;99.90
39503;DHT22;26970;49.900;10.774;2024-02-28T04:47:29;4.20;99.90
39503;DHT22;26970;49.900;10.774;2024-02-28T04:49:55;4.10;99.90
39503;DHT22;26970;49.900;10.774;2024-02-28T04:52:20;4.20;99.90
39503;DHT22;26970;49.900;10.774;2024-02-28T04:54:46;4.20;99.90
39503;DHT22;26970;49.900;10.774;2024-02-28T04:57:11;4.20;99.90
39503;DHT22;26970;49.900;10.774;2024-02-28T04:59:37;4.20;99.90
39503;DHT22;26970;49.900;10.774;2024-02-28T05:02:03;4.20;99.90
39503;DHT22;26970;49.900;10.774;2024-02-28T05:04:28;4.20;99.90
39503;DHT22;26970;49.900;10.774;2024-02-28T05:06:54;4.20;99.90
39503;DHT22;26970;49.900;10.774;2024-02-28T05:09:20;4.20;99.90
39503;DHT22;26970;49.900;10.774;2024-02-28T05:11:45;4.20;99.90
39503;DHT22;26970;49.900;10.774;2024-02-28T05:14:11;4.20;99.90
39503;DHT22;26970;49.900;10.774;2024-02-28T05:16:36;4.20;99.90
39503;DHT22;26970;49.900;10.774;2024-02-28T05:19:02;4.20;99.90
39503;DHT22;26970;49.900;10.774;2024-02-28T05:21:29;4.20;99.90
39503;DHT22;26970;49.900;10.774;2024-02-28T05:23:55;4.20;99.90
39503;DHT22;26970;49.900;10.774;2024-02-28T05:26:21;4.20;99.90
39503;DHT22;26970;49.900;10.774;2024-02-28T05:28:46;4.20;99.90
39503;DHT22;26970;49.900;10.774;2024-02-28T05:31:25;4.20;99.90
39503;DHT22;26970;49.900;10.774;2024-02-28T05:33:52;4.20;99.90
39503;DHT22;26970;49.900;10.774;2024-02-28T05:36:17;4.20;99.90
39503;DHT22;26970;49.900;10.774;2024-02-28T05:38:44;4.20;99.90
39503;DHT22;26970;49.900;10.774;2024-02-28T05:41:09;4.20;99.90
39503;DHT22;26970;49.900;10.774;2024-02-28T05:43:37;4.20;99.90
39503;DHT22;26970;49.900;10.774;2024-02-28T05:46:03;4.20;99.90
39503;DHT22;26970;49.900;10.774;2024-02-28T05:48:29;4.20;99.90
39503;DHT22;26970;49.900;10.774;2024-02-28T05:50:54;4.10;99.90
39503;DHT22;26970;49.900;10.774;2024-02-28T05:53:20;4.10;99.90
39503;DHT22;26970;49.900;10.774;2024-02-28T05:55:46;4.10;99.90
39503;DHT22;26970;49.900;10.774;2024-02-28T05:58:13;4.10;99.90
39503;DHT22;26970;49.900;10.774;2024-02-28T06:00:39;4.10;99.90
39503;DHT22;26970;49.900;10.774;2024-02-28T06:03:04;4.10;99.90
39503;DHT22;26970;49.900;10.774;2024-02-28T06:05:30;4.10;99.90
39503;DHT22;26970;49.900;10.774;2024-02-28T06:07:56;4.10;99.90
39503;DHT22;26970;49.900;10.774;2024-02-28T06:10:21;4.10;99.90
39503;DHT22;26970;49.900;10.774;2024-02-28T06:12:47;4.10;99.90
39503;DHT22;26970;49.900;10.774;2024-02-28T06:15:13;4.10;99.90
39503;DHT22;26970;49.900;10.774;2024-02-28T06:17:38;4.20;99.90
39503;DHT22;26970;49.900;10.774;2024-02-28T06:20:05;4.10;99.90
39503;DHT22;26970;49.900;10.774;2024-02-28T06:22:31;4.10;99.90
39503;DHT22;26970;49.900;10.774;2024-02-28T06:24:57;4.10;99.90
39503;DHT22;26970;49.900;10.774;2024-02-28T06:27:22;4.10;99.90
39503;DHT22;26970;49.900;10.774;2024-02-28T06:29:48;4.10;99.90
39503;DHT22;26970;49.900;10.774;2024-02-28T06:32:14;4.10;99.90
39503;DHT22;26970;49.900;10.774;2024-02-28T06:34:40;4.10;99.90
39503;DHT22;26970;49.900;10.774;2024-02-28T06:37:05;4.10;99.90
39503;DHT22;26970;49.900;10.774;2024-02-28T06:39:31;4.10;99.90
39503;DHT22;26970;49.900;10.774;2024-02-28T06:41:56;4.10;99.90
39503;DHT22;26970;49.900;10.774;2024-02-28T06:44:22;4.10;99.90
39503;DHT22;26970;49.900;10.774;2024-02-28T06:46:47;4.10;99.90
39503;DHT22;26970;49.900;10.774;2024-02-28T06:49:13;4.00;99.90
39503;DHT22;26970;49.900;10.774;2024-02-28T06:51:39;4.00;99.90
39503;DHT22;26970;49.900;10.774;2024-02-28T06:54:04;4.10;99.90
39503;DHT22;26970;49.900;10.774;2024-02-28T06:56:33;4.10;99.90
39503;DHT22;26970;49.900;10.774;2024-02-28T06:58:58;4.10;99.90
39503;DHT22;26970;49.900;10.774;2024-02-28T07:01:24;4.10;99.90
39503;DHT22;26970;49.900;10.774;2024-02-28T07:03:49;4.10;99.90
39503;DHT22;26970;49.900;10.774;2024-02-28T07:06:15;4.10;99.90
39503;DHT22;26970;49.900;10.774;2024-02-28T07:08:40;4.20;99.90
39503;DHT22;26970;49.900;10.774;2024-02-28T07:11:13;4.20;99.90
39503;DHT22;26970;49.900;10.774;2024-02-28T07:13:39;4.20;99.90
39503;DHT22;26970;49.900;10.774;2024-02-28T07:16:04;4.20;99.90
39503;DHT22;26970;49.900;10.774;2024-02-28T07:18:32;4.20;99.90
39503;DHT22;26970;49.900;10.774;2024-02-28T07:20:57;4.30;99.90
39503;DHT22;26970;49.900;10.774;2024-02-28T07:23:23;4.30;99.90
39503;DHT22;26970;49.900;10.774;2024-02-28T07:25:48;4.30;99.90
39503;DHT22;26970;49.900;10.774;2024-02-28T07:28:14;4.30;99.90
39503;DHT22;26970;49.900;10.774;2024-02-28T07:30:39;4.30;99.90
39503;DHT22;26970;49.900;10.774;2024-02-28T07:33:05;4.30;99.90
39503;DHT22;26970;49.900;10.774;2024-02-28T07:35:31;4.30;99.90
39503;DHT22;26970;49.900;10.774;2024-02-28T07:37:56;4.40;99.90
39503;DHT22;26970;49.900;10.774;2024-02-28T07:40:22;4.40;99.90
39503;DHT22;26970;49.900;10.774;2024-02-28T07:42:47;4.40;99.90
39503;DHT22;26970;49.900;10.774;2024-02-28T07:45:13;4.40;99.90
39503;DHT22;26970;49.900;10.774;2024-02-28T07:47:39;4.40;99.90
39503;DHT22;26970;49.900;10.774;2024-02-28T07:50:06;4.40;99.90
39503;DHT22;26970;49.900;10.774;2024-02-28T07:52:31;4.40;99.90
39503;DHT22;26970;49.900;10.774;2024-02-28T07:55:00;4.40;99.90
39503;DHT22;26970;49.900;10.774;2024-02-28T07:57:26;4.50;99.90
39503;DHT22;26970;49.900;10.774;2024-02-28T07:59:51;4.50;99.90
39503;DHT22;26970;49.900;10.774;2024-02-28T08:02:17;4.40;99.90
39503;DHT22;26970;49.900;10.774;2024-02-28T08:04:45;4.40;99.90
39503;DHT22;26970;49.900;10.774;2024-02-28T08:07:10;4.50;99.90
39503;DHT22;26970;49.900;10.774;2024-02-28T08:09:36;4.60;99.90
39503;DHT22;26970;49.900;10.774;2024-02-28T08:12:02;4.70;99.90
39503;DHT22;26970;49.900;10.774;2024-02-28T08:14:27;4.70;99.90
39503;DHT22;26970;49.900;10.774;2024-02-28T08:16:53;4.80;99.90
39503;DHT22;26970;49.900;10.774;2024-02-28T08:19:19;4.80;99.90
39503;DHT22;26970;49.900;10.774;2024-02-28T08:21:44;4.70;99.90
39503;DHT22;26970;49.900;10.774;2024-02-28T08:24:10;4.70;99.90
39503;DHT22;26970;49.900;10.774;2024-02-28T08:26:35;4.80;99.90
39503;DHT22;26970;49.900;10.774;2024-02-28T08:29:01;4.80;99.90
39503;DHT22;26970;49.900;10.774;2024-02-28T08:31:28;4.80;99.90
39503;DHT22;26970;49.900;10.774;2024-02-28T08:33:53;4.80;99.90
39503;DHT22;26970;49.900;10.774;2024-02-28T08:36:20;4.90;99.90
39503;DHT22;26970;49.900;10.774;2024-02-28T08:38:46;5.00;99.90
39503;DHT22;26970;49.900;10.774;2024-02-28T08:41:11;5.10;99.90
39503;DHT22;26970;49.900;10.774;2024-02-28T08:43:40;5.30;99.90
39503;DHT22;26970;49.900;10.774;2024-02-28T08:46:06;5.50;99.90
39503;DHT22;26970;49.900;10.774;2024-02-28T08:48:32;5.50;99.90
39503;DHT22;26970;49.900;10.774;2024-02-28T08:50:58;5.50;99.90
39503;DHT22;26970;49.900;10.774;2024-02-28T08:53:23;5.60;99.90
39503;DHT22;26970;49.900;10.774;2024-02-28T08:55:49;5.70;99.90
39503;DHT22;26970;49.900;10.774;2024-02-28T08:58:14;5.70;99.90
39503;DHT22;26970;49.900;10.774;2024-02-28T09:00:40;5.80;99.90
39503;DHT22;26970;49.900;10.774;2024-02-28T09:03:06;5.80;99.90
39503;DHT22;26970;49.900;10.774;2024-02-28T09:05:31;6.00;99.90
39503;DHT22;26970;49.900;10.774;2024-02-28T09:07:57;6.10;99.90
39503;DHT22;26970;49.900;10.774;2024-02-28T09:10:23;6.10;99.90
39503;DHT22;26970;49.900;10.774;2024-02-28T09:12:51;6.20;99.90
39503;DHT22;26970;49.900;10.774;2024-02-28T09:15:17;6.30;99.90
39503;DHT22;26970;49.900;10.774;2024-02-28T09:17:43;6.50;99.90
39503;DHT22;26970;49.900;10.774;2024-02-28T09:20:09;6.60;99.90
39503;DHT22;26970;49.900;10.774;2024-02-28T09:22:35;6.60;99.90
39503;DHT22;26970;49.900;10.774;2024-02-28T09:25:01;6.70;99.90
39503;DHT22;26970;49.900;10.774;2024-02-28T09:27:30;6.70;99.90
39503;DHT22;26970;49.900;10.774;2024-02-28T09:29:55;6.70;99.90
39503;DHT22;26970;49.900;10.774;2024-02-28T09:32:21;6.70;99.90
39503;DHT22;26970;49.900;10.774;2024-02-28T09:34:46;6.70;99.90
39503;DHT22;26970;49.900;10.774;2024-02-28T09:37:13;6.80;99.90
39503;DHT22;26970;49.900;10.774;2024-02-28T09:39:39;6.60;99.90
39503;DHT22;26970;49.900;10.774;2024-02-28T09:42:07;6.60;99.90
39503;DHT22;26970;49.900;10.774;2024-02-28T09:44:34;6.60;99.90
39503;DHT22;26970;49.900;10.774;2024-02-28T09:47:02;6.50;99.90
39503;DHT22;26970;49.900;10.774;2024-02-28T09:49:29;6.40;99.90
39503;DHT22;26970;49.900;10.774;2024-02-28T09:51:57;6.30;99.90
39503;DHT22;26970;49.900;10.774;2024-02-28T09:54:23;6.40;99.90
39503;DHT22;26970;49.900;10.774;2024-02-28T09:56:49;6.50;99.90
39503;DHT22;26970;49.900;10.774;2024-02-28T09:59:17;6.60;99.90
39503;DHT22;26970;49.900;10.774;2024-02-28T10:01:45;6.70;99.90
39503;DHT22;26970;49.900;10.774;2024-02-28T10:04:13;6.60;99.90
39503;DHT22;26970;49.900;10.774;2024-02-28T10:06:42;6.80;99.90
39503;DHT22;26970;49.900;10.774;2024-02-28T10:09:07;7.10;99.90
39503;DHT22;26970;49.900;10.774;2024-02-28T10:11:33;7.20;99.90
39503;DHT22;26970;49.900;10.774;2024-02-28T10:14:01;7.10;99.90
39503;DHT22;26970;49.900;10.774;2024-02-28T10:16:27;7.10;99.90
39503;DHT22;26970;49.900;10.774;2024-02-28T10:18:52;7.20;99.90
39503;DHT22;26970;49.900;10.774;2024-02-28T10:21:19;7.40;99.90
39503;DHT22;26970;49.900;10.774;2024-02-28T10:23:45;7.60;99.90
39503;DHT22;26970;49.900;10.774;2024-02-28T10:26:11;7.60;99.90
39503;DHT22;26970;49.900;10.774;2024-02-28T10:28:40;7.60;99.90
39503;DHT22;26970;49.900;10.774;2024-02-28T10:31:07;7.70;99.90
39503;DHT22;26970;49.900;10.774;2024-02-28T10:33:33;7.80;99.90
39503;DHT22;26970;49.900;10.774;2024-02-28T10:36:02;7.90;99.90
39503;DHT22;26970;49.900;10.774;2024-02-28T10:38:30;7.80;99.90
39503;DHT22;26970;49.900;10.774;2024-02-28T10:40:56;7.70;99.90
39503;DHT22;26970;49.900;10.774;2024-02-28T10:43:23;7.70;99.90
39503;DHT22;26970;49.900;10.774;2024-02-28T10:45:52;7.80;99.90
39503;DHT22;26970;49.900;10.774;2024-02-28T10:48:18;7.90;99.90
39503;DHT22;26970;49.900;10.774;2024-02-28T10:50:46;8.10;99.90
39503;DHT22;26970;49.900;10.774;2024-02-28T10:53:13;8.40;99.90
39503;DHT22;26970;49.900;10.774;2024-02-28T10:55:40;8.40;99.90
39503;DHT22;26970;49.900;10.774;2024-02-28T10:58:07;8.30;99.90
39503;DHT22;26970;49.900;10.774;2024-02-28T11:00:36;8.30;99.90
39503;DHT22;26970;49.900;10.774;2024-02-28T11:03:03;8.50;99.90
39503;DHT22;26970;49.900;10.774;2024-02-28T11:05:40;8.70;99.90
39503;DHT22;26970;49.900;10.774;2024-02-28T11:08:24;8.80;99.90
39503;DHT22;26970;49.900;10.774;2024-02-28T11:11:02;8.90;99.90
39503;DHT22;26970;49.900;10.774;2024-02-28T11:13:29;8.80;99.90
39503;DHT22;26970;49.900;10.774;2024-02-28T11:16:07;8.90;99.90
39503;DHT22;26970;49.900;10.774;2024-02-28T11:18:33;9.00;99.90
39503;DHT22;26970;49.900;10.774;2024-02-28T11:20:58;9.20;99.90
39503;DHT22;26970;49.900;10.774;2024-02-28T11:23:24;9.10;99.90
39503;DHT22;26970;49.900;10.774;2024-02-28T11:25:49;8.90;99.90
39503;DHT22;26970;49.900;10.774;2024-02-28T11:28:16;8.90;99.90
39503;DHT22;26970;49.900;10.774;2024-02-28T11:30:41;8.80;99.90
39503;DHT22;26970;49.900;10.774;2024-02-28T11:33:07;8.90;99.90
39503;DHT22;26970;49.900;10.774;2024-02-28T11:35:35;8.90;99.90
39503;DHT22;26970;49.900;10.774;2024-02-28T11:38:00;9.00;99.90
39503;DHT22;26970;49.900;10.774;2024-02-28T11:40:26;8.80;99.90
39503;DHT22;26970;49.900;10.774;2024-02-28T11:42:53;8.60;99.90
39503;DHT22;26970;49.900;10.774;2024-02-28T11:45:19;8.40;99.90
39503;DHT22;26970;49.900;10.774;2024-02-28T11:47:45;8.30;99.90
39503;DHT22;26970;49.900;10.774;2024-02-28T11:50:11;8.40;99.90
39503;DHT22;26970;49.900;10.774;2024-02-28T11:52:37;8.40;99.90
39503;DHT22;26970;49.900;10.774;2024-02-28T11:55:03;8.40;99.90
39503;DHT22;26970;49.900;10.774;2024-02-28T11:57:29;8.40;99.90
39503;DHT22;26970;49.900;10.774;2024-02-28T12:00:02;8.50;99.90
39503;DHT22;26970;49.900;10.774;2024-02-28T12:02:29;8.50;99.90
39503;DHT22;26970;49.900;10.774;2024-02-28T12:05:00;8.70;99.90
39503;DHT22;26970;49.900;10.774;2024-02-28T12:07:26;8.50;99.90
39503;DHT22;26970;49.900;10.774;2024-02-28T12:09:54;8.60;99.90
39503;DHT22;26970;49.900;10.774;2024-02-28T12:12:19;8.60;99.90
39503;DHT22;26970;49.900;10.774;2024-02-28T12:14:46;8.40;99.90
39503;DHT22;26970;49.900;10.774;2024-02-28T12:17:11;8.50;99.90
39503;DHT22;26970;49.900;10.774;2024-02-28T12:19:39;8.50;99.90
39503;DHT22;26970;49.900;10.774;2024-02-28T12:22:04;8.60;99.90
39503;DHT22;26970;49.900;10.774;2024-02-28T12:24:30;8.70;99.90
39503;DHT22;26970;49.900;10.774;2024-02-28T12:26:56;8.90;99.90
39503;DHT22;26970;49.900;10.774;2024-02-28T12:29:21;8.90;99.90
39503;DHT22;26970;49.900;10.774;2024-02-28T12:31:47;8.60;99.90
39503;DHT22;26970;49.900;10.774;2024-02-28T12:34:12;8.60;99.90
39503;DHT22;26970;49.900;10.774;2024-02-28T12:36:40;8.70;99.90
39503;DHT22;26970;49.900;10.774;2024-02-28T12:39:06;8.80;99.90
39503;DHT22;26970;49.900;10.774;2024-02-28T12:41:32;8.80;99.90
39503;DHT22;26970;49.900;10.774;2024-02-28T12:43:58;8.80;99.90
39503;DHT22;26970;49.900;10.774;2024-02-28T12:46:24;8.70;99.90
39503;DHT22;26970;49.900;10.774;2024-02-28T12:48:49;8.90;99.90
39503;DHT22;26970;49.900;10.774;2024-02-28T12:51:37;8.80;99.90
39503;DHT22;26970;49.900;10.774;2024-02-28T12:54:03;8.90;99.90
39503;DHT22;26970;49.900;10.774;2024-02-28T12:56:29;9.00;99.90
39503;DHT22;26970;49.900;10.774;2024-02-28T12:58:54;9.10;99.90
39503;DHT22;26970;49.900;10.774;2024-02-28T13:01:20;9.10;99.90
39503;DHT22;26970;49.900;10.774;2024-02-28T13:03:45;9.20;99.90
39503;DHT22;26970;49.900;10.774;2024-02-28T13:06:11;9.10;99.90
39503;DHT22;26970;49.900;10.774;2024-02-28T13:08:36;9.20;99.90
39503;DHT22;26970;49.900;10.774;2024-02-28T13:11:02;9.10;99.90
39503;DHT22;26970;49.900;10.774;2024-02-28T13:13:28;9.20;99.90
39503;DHT22;26970;49.900;10.774;2024-02-28T13:15:54;9.20;99.90
39503;DHT22;26970;49.900;10.774;2024-02-28T13:18:19;9.20;99.90
39503;DHT22;26970;49.900;10.774;2024-02-28T13:20:45;9.20;99.90
39503;DHT22;26970;49.900;10.774;2024-02-28T13:23:11;9.30;99.90
39503;DHT22;26970;49.900;10.774;2024-02-28T13:25:36;9.40;99.90
39503;DHT22;26970;49.900;10.774;2024-02-28T13:28:02;9.50;99.90
39503;DHT22;26970;49.900;10.774;2024-02-28T13:30:28;9.60;99.90
39503;DHT22;26970;49.900;10.774;2024-02-28T13:32:53;9.50;99.90
39503;DHT22;26970;49.900;10.774;2024-02-28T13:35:19;9.50;99.90
39503;DHT22;26970;49.900;10.774;2024-02-28T13:37:44;9.40;99.90
39503;DHT22;26970;49.900;10.774;2024-02-28T13:40:10;9.40;99.90
39503;DHT22;26970;49.900;10.774;2024-02-28T13:42:36;9.40;99.90
39503;DHT22;26970;49.900;10.774;2024-02-28T13:45:04;9.50;99.90
39503;DHT22;26970;49.900;10.774;2024-02-28T13:47:33;9.50;99.90
39503;DHT22;26970;49.900;10.774;2024-02-28T13:49:58;9.70;99.90
39503;DHT22;26970;49.900;10.774;2024-02-28T13:52:24;9.60;99.90
39503;DHT22;26970;49.900;10.774;2024-02-28T13:54:50;9.70;99.90
39503;DHT22;26970;49.900;10.774;2024-02-28T13:57:17;9.70;99.90
39503;DHT22;26970;49.900;10.774;2024-02-28T13:59:43;9.50;99.90
39503;DHT22;26970;49.900;10.774;2024-02-28T14:02:08;9.50;99.90
39503;DHT22;26970;49.900;10.774;2024-02-28T14:04:35;9.50;99.90
39503;DHT22;26970;49.900;10.774;2024-02-28T14:07:02;9.50;99.90
39503;DHT22;26970;49.900;10.774;2024-02-28T14:09:28;9.50;99.90
39503;DHT22;26970;49.900;10.774;2024-02-28T14:11:54;9.60;99.90
39503;DHT22;26970;49.900;10.774;2024-02-28T14:14:19;9.60;99.90
39503;DHT22;26970;49.900;10.774;2024-02-28T14:16:45;9.70;99.90
39503;DHT22;26970;49.900;10.774;2024-02-28T14:19:10;9.80;99.90
39503;DHT22;26970;49.900;10.774;2024-02-28T14:21:36;9.80;99.90
39503;DHT22;26970;49.900;10.774;2024-02-28T14:24:02;9.80;99.90
39503;DHT22;26970;49.900;10.774;2024-02-28T14:26:27;9.90;99.90
39503;DHT22;26970;49.900;10.774;2024-02-28T14:28:53;9.80;99.90
39503;DHT22;26970;49.900;10.774;2024-02-28T14:31:20;9.80;99.90
39503;DHT22;26970;49.900;10.774;2024-02-28T14:33:46;9.90;99.90
39503;DHT22;26970;49.900;10.774;2024-02-28T14:36:11;9.90;99.90
39503;DHT22;26970;49.900;10.774;2024-02-28T14:38:37;9.80;99.90
39503;DHT22;26970;49.900;10.774;2024-02-28T14:41:03;9.70;99.90
39503;DHT22;26970;49.900;10.774;2024-02-28T14:43:28;9.60;99.90
39503;DHT22;26970;49.900;10.774;2024-02-28T14:45:55;9.50;99.90
39503;DHT22;26970;49.900;10.774;2024-02-28T14:48:21;9.50;99.90
39503;DHT22;26970;49.900;10.774;2024-02-28T14:50:47;9.50;99.90
39503;DHT22;26970;49.900;10.774;2024-02-28T14:53:13;9.50;99.90
39503;DHT22;26970;49.900;10.774;2024-02-28T14:55:41;9.50;99.90
39503;DHT22;26970;49.900;10.774;2024-02-28T14:58:10;9.50;99.90
39503;DHT22;26970;49.900;10.774;2024-02-28T15:00:35;9.50;99.90
39503;DHT22;26970;49.900;10.774;2024-02-28T15:03:01;9.60;99.90
39503;DHT22;26970;49.900;10.774;2024-02-28T15:05:26;9.50;99.90
39503;DHT22;26970;49.900;10.774;2024-02-28T15:07:52;9.50;99.90
39503;DHT22;26970;49.900;10.774;2024-02-28T15:10:20;9.40;99.90
39503;DHT22;26970;49.900;10.774;2024-02-28T15:12:45;9.30;99.90
39503;DHT22;26970;49.900;10.774;2024-02-28T15:15:11;9.30;99.90
39503;DHT22;26970;49.900;10.774;2024-02-28T15:17:37;9.30;99.90
39503;DHT22;26970;49.900;10.774;2024-02-28T15:20:03;9.40;99.90
39503;DHT22;26970;49.900;10.774;2024-02-28T15:22:29;9.50;99.90